sensor_id;sensor_type;location;lat;lon;timestamp;P1;durP1;ratioP1;P2;durP2;ratioP2
9767;SDS011;4923;52.520;13.494;2023-07-13T00:00:19;1.67;;;1.57;;
9767;SDS011;4923;52.520;13.494;2023-07-13T00:03:07;3.10;;;1.73;;
9767;SDS011;4923;52.520;13.494;2023-07-13T00:05:57;1.87;;;1.30;;
9767;SDS011;4923;52.520;13.494;2023-07-13T00:08:45;4.43;;;1.57;;
9767;SDS011;4923;52.520;13.494;2023-07-13T00:11:34;3.63;;;1.40;;
9767;SDS011;4923;52.520;13.494;2023-07-13T00:14:22;3.57;;;1.80;;
9767;SDS011;4923;52.520;13.494;2023-07-13T00:17:09;2.73;;;1.43;;
9767;SDS011;4923;52.520;13.494;2023-07-13T00:19:56;4.47;;;2.20;;
9767;SDS011;4923;52.520;13.494;2023-07-13T00:22:43;3.87;;;1.80;;
9767;SDS011;4923;52.520;13.494;2023-07-13T00:25:30;4.93;;;2.47;;
9767;SDS011;4923;52.520;13.494;2023-07-13T00:28:17;14.20;;;1.80;;
9767;SDS011;4923;52.520;13.494;2023-07-13T00:31:05;3.03;;;1.50;;
9767;SDS011;4923;52.520;13.494;2023-07-13T00:33:53;2.70;;;1.73;;
9767;SDS011;4923;52.520;13.494;2023-07-13T00:36:39;1.90;;;1.37;;
9767;SDS011;4923;52.520;13.494;2023-07-13T00:39:26;1.90;;;1.80;;
9767;SDS011;4923;52.520;13.494;2023-07-13T00:42:13;5.47;;;1.60;;
9767;SDS011;4923;52.520;13.494;2023-07-13T00:45:01;1.70;;;1.60;;
9767;SDS011;4923;52.520;13.494;2023-07-13T00:47:55;7.23;;;1.83;;
9767;SDS011;4923;52.520;13.494;2023-07-13T00:50:43;2.60;;;1.40;;
9767;SDS011;4923;52.520;13.494;2023-07-13T00:53:32;5.93;;;1.80;;
9767;SDS011;4923;52.520;13.494;2023-07-13T00:56:20;2.83;;;1.70;;
9767;SDS011;4923;52.520;13.494;2023-07-13T00:59:07;4.27;;;2.63;;
9767;SDS011;4923;52.520;13.494;2023-07-13T01:01:57;2.70;;;1.50;;
9767;SDS011;4923;52.520;13.494;2023-07-13T01:04:45;6.97;;;2.07;;
9767;SDS011;4923;52.520;13.494;2023-07-13T01:07:32;2.60;;;2.00;;
9767;SDS011;4923;52.520;13.494;2023-07-13T01:10:21;1.50;;;1.10;;
9767;SDS011;4923;52.520;13.494;2023-07-13T01:13:09;4.07;;;1.73;;
9767;SDS011;4923;52.520;13.494;2023-07-13T01:15:57;3.43;;;1.67;;
9767;SDS011;4923;52.520;13.494;2023-07-13T01:18:47;4.60;;;1.80;;
9767;SDS011;4923;52.520;13.494;2023-07-13T01:21:35;3.53;;;1.87;;
9767;SDS011;4923;52.520;13.494;2023-07-13T01:24:23;3.87;;;1.50;;
9767;SDS011;4923;52.520;13.494;2023-07-13T01:27:11;3.00;;;1.97;;
9767;SDS011;4923;52.520;13.494;2023-07-13T01:30:00;1.50;;;1.50;;
9767;SDS011;4923;52.520;13.494;2023-07-13T01:32:49;2.47;;;1.57;;
9767;SDS011;4923;52.520;13.494;2023-07-13T01:35:36;3.00;;;1.73;;
9767;SDS011;4923;52.520;13.494;2023-07-13T01:38:24;1.73;;;1.50;;
9767;SDS011;4923;52.520;13.494;2023-07-13T01:41:12;3.73;;;2.20;;
9767;SDS011;4923;52.520;13.494;2023-07-13T01:43:59;4.10;;;2.40;;
9767;SDS011;4923;52.520;13.494;2023-07-13T01:46:45;1.60;;;1.60;;
9767;SDS011;4923;52.520;13.494;2023-07-13T01:49:32;4.10;;;1.97;;
9767;SDS011;4923;52.520;13.494;2023-07-13T01:52:19;5.90;;;1.90;;
9767;SDS011;4923;52.520;13.494;2023-07-13T01:55:08;2.07;;;1.97;;
9767;SDS011;4923;52.520;13.494;2023-07-13T01:57:55;2.00;;;1.30;;
9767;SDS011;4923;52.520;13.494;2023-07-13T02:00:42;4.80;;;2.00;;
9767;SDS011;4923;52.520;13.494;2023-07-13T02:03:28;1.80;;;1.70;;
9767;SDS011;4923;52.520;13.494;2023-07-13T02:06:16;6.87;;;2.57;;
9767;SDS011;4923;52.520;13.494;2023-07-13T02:09:03;7.40;;;2.00;;
9767;SDS011;4923;52.520;13.494;2023-07-13T02:11:51;6.90;;;1.80;;
9767;SDS011;4923;52.520;13.494;2023-07-13T02:14:38;4.43;;;2.87;;
9767;SDS011;4923;52.520;13.494;2023-07-13T02:17:25;4.20;;;2.00;;
9767;SDS011;4923;52.520;13.494;2023-07-13T02:20:12;2.43;;;2.20;;
9767;SDS011;4923;52.520;13.494;2023-07-13T02:22:59;3.60;;;2.10;;
9767;SDS011;4923;52.520;13.494;2023-07-13T02:25:46;5.97;;;2.00;;
9767;SDS011;4923;52.520;13.494;2023-07-13T02:28:34;2.00;;;1.80;;
9767;SDS011;4923;52.520;13.494;2023-07-13T02:31:21;2.20;;;1.50;;
9767;SDS011;4923;52.520;13.494;2023-07-13T02:34:07;9.57;;;2.27;;
9767;SDS011;4923;52.520;13.494;2023-07-13T02:36:55;3.43;;;2.03;;
9767;SDS011;4923;52.520;13.494;2023-07-13T02:39:41;3.60;;;1.83;;
9767;SDS011;4923;52.520;13.494;2023-07-13T02:42:28;5.50;;;1.77;;
9767;SDS011;4923;52.520;13.494;2023-07-13T02:45:16;2.93;;;1.93;;
9767;SDS011;4923;52.520;13.494;2023-07-13T02:48:03;7.23;;;1.80;;
9767;SDS011;4923;52.520;13.494;2023-07-13T02:50:51;7.77;;;1.77;;
9767;SDS011;4923;52.520;13.494;2023-07-13T02:53:38;1.70;;;1.60;;
9767;SDS011;4923;52.520;13.494;2023-07-13T02:56:25;3.80;;;2.43;;
9767;SDS011;4923;52.520;13.494;2023-07-13T02:59:14;2.17;;;1.77;;
9767;SDS011;4923;52.520;13.494;2023-07-13T03:02:02;4.83;;;2.47;;
9767;SDS011;4923;52.520;13.494;2023-07-13T03:04:49;4.37;;;2.40;;
9767;SDS011;4923;52.520;13.494;2023-07-13T03:07:36;4.33;;;2.47;;
9767;SDS011;4923;52.520;13.494;2023-07-13T03:10:23;2.30;;;2.00;;
9767;SDS011;4923;52.520;13.494;2023-07-13T03:13:10;2.27;;;2.20;;
9767;SDS011;4923;52.520;13.494;2023-07-13T03:15:57;3.57;;;2.47;;
9767;SDS011;4923;52.520;13.494;2023-07-13T03:18:45;3.60;;;2.30;;
9767;SDS011;4923;52.520;13.494;2023-07-13T03:21:32;2.70;;;2.50;;
9767;SDS011;4923;52.520;13.494;2023-07-13T03:24:19;3.07;;;2.57;;
9767;SDS011;4923;52.520;13.494;2023-07-13T03:27:11;2.30;;;2.13;;
9767;SDS011;4923;52.520;13.494;2023-07-13T03:29:58;2.20;;;1.73;;
9767;SDS011;4923;52.520;13.494;2023-07-13T03:32:44;2.40;;;2.20;;
9767;SDS011;4923;52.520;13.494;2023-07-13T03:35:33;6.10;;;2.10;;
9767;SDS011;4923;52.520;13.494;2023-07-13T03:38:20;5.30;;;2.53;;
9767;SDS011;4923;52.520;13.494;2023-07-13T03:41:07;2.53;;;2.33;;
9767;SDS011;4923;52.520;13.494;2023-07-13T03:43:54;3.20;;;2.27;;
9767;SDS011;4923;52.520;13.494;2023-07-13T03:46:41;5.60;;;2.20;;
9767;SDS011;4923;52.520;13.494;2023-07-13T03:49:28;11.50;;;2.37;;
9767;SDS011;4923;52.520;13.494;2023-07-13T03:52:16;9.90;;;1.97;;
9767;SDS011;4923;52.520;13.494;2023-07-13T03:55:03;3.97;;;1.53;;
9767;SDS011;4923;52.520;13.494;2023-07-13T03:57:53;5.00;;;1.83;;
9767;SDS011;4923;52.520;13.494;2023-07-13T04:00:44;2.87;;;1.83;;
9767;SDS011;4923;52.520;13.494;2023-07-13T04:03:31;4.87;;;2.47;;
9767;SDS011;4923;52.520;13.494;2023-07-13T04:06:19;2.00;;;1.60;;
9767;SDS011;4923;52.520;13.494;2023-07-13T04:09:08;2.33;;;2.13;;
9767;SDS011;4923;52.520;13.494;2023-07-13T04:11:56;1.80;;;1.80;;
9767;SDS011;4923;52.520;13.494;2023-07-13T04:14:43;1.70;;;1.47;;
9767;SDS011;4923;52.520;13.494;2023-07-13T04:17:30;1.90;;;1.80;;
9767;SDS011;4923;52.520;13.494;2023-07-13T04:20:17;1.83;;;1.73;;
9767;SDS011;4923;52.520;13.494;2023-07-13T04:23:05;7.70;;;2.20;;
9767;SDS011;4923;52.520;13.494;2023-07-13T04:25:54;1.73;;;1.57;;
9767;SDS011;4923;52.520;13.494;2023-07-13T04:28:41;2.07;;;1.73;;
9767;SDS011;4923;52.520;13.494;2023-07-13T04:31:28;5.30;;;1.37;;
9767;SDS011;4923;52.520;13.494;2023-07-13T04:34:15;2.07;;;1.70;;
9767;SDS011;4923;52.520;13.494;2023-07-13T04:37:02;2.20;;;1.70;;
9767;SDS011;4923;52.520;13.494;2023-07-13T04:39:49;3.60;;;1.47;;
9767;SDS011;4923;52.520;13.494;2023-07-13T04:42:38;5.10;;;1.73;;
9767;SDS011;4923;52.520;13.494;2023-07-13T04:45:25;2.50;;;1.70;;
9767;SDS011;4923;52.520;13.494;2023-07-13T04:48:12;7.50;;;1.50;;
9767;SDS011;4923;52.520;13.494;2023-07-13T04:50:58;3.63;;;2.53;;
9767;SDS011;4923;52.520;13.494;2023-07-13T04:53:46;1.80;;;1.70;;
9767;SDS011;4923;52.520;13.494;2023-07-13T04:56:33;4.30;;;1.80;;
9767;SDS011;4923;52.520;13.494;2023-07-13T04:59:21;6.17;;;1.73;;
9767;SDS011;4923;52.520;13.494;2023-07-13T05:02:09;3.07;;;1.73;;
9767;SDS011;4923;52.520;13.494;2023-07-13T05:04:57;2.97;;;1.77;;
9767;SDS011;4923;52.520;13.494;2023-07-13T05:07:44;2.17;;;1.63;;
9767;SDS011;4923;52.520;13.494;2023-07-13T05:10:30;12.80;;;2.37;;
9767;SDS011;4923;52.520;13.494;2023-07-13T05:13:17;4.20;;;1.40;;
9767;SDS011;4923;52.520;13.494;2023-07-13T05:16:06;3.97;;;1.80;;
9767;SDS011;4923;52.520;13.494;2023-07-13T05:18:53;3.03;;;1.73;;
9767;SDS011;4923;52.520;13.494;2023-07-13T05:21:40;2.13;;;1.60;;
9767;SDS011;4923;52.520;13.494;2023-07-13T05:24:27;13.93;;;4.03;;
9767;SDS011;4923;52.520;13.494;2023-07-13T05:27:14;2.97;;;1.87;;
9767;SDS011;4923;52.520;13.494;2023-07-13T05:30:01;4.93;;;2.10;;
9767;SDS011;4923;52.520;13.494;2023-07-13T05:32:49;10.50;;;3.37;;
9767;SDS011;4923;52.520;13.494;2023-07-13T05:35:36;19.20;;;5.10;;
9767;SDS011;4923;52.520;13.494;2023-07-13T05:38:23;2.03;;;1.50;;
9767;SDS011;4923;52.520;13.494;2023-07-13T05:41:10;4.47;;;1.70;;
9767;SDS011;4923;52.520;13.494;2023-07-13T05:43:56;3.73;;;1.47;;
9767;SDS011;4923;52.520;13.494;2023-07-13T05:46:43;4.97;;;1.37;;
9767;SDS011;4923;52.520;13.494;2023-07-13T05:49:31;2.90;;;1.70;;
9767;SDS011;4923;52.520;13.494;2023-07-13T05:52:18;2.73;;;1.00;;
9767;SDS011;4923;52.520;13.494;2023-07-13T05:55:05;4.30;;;1.33;;
9767;SDS011;4923;52.520;13.494;2023-07-13T05:57:52;7.70;;;1.33;;
9767;SDS011;4923;52.520;13.494;2023-07-13T06:00:39;1.80;;;1.20;;
9767;SDS011;4923;52.520;13.494;2023-07-13T06:03:26;1.13;;;0.90;;
9767;SDS011;4923;52.520;13.494;2023-07-13T06:06:15;1.73;;;1.00;;
9767;SDS011;4923;52.520;13.494;2023-07-13T06:09:02;2.63;;;1.37;;
9767;SDS011;4923;52.520;13.494;2023-07-13T06:11:49;3.27;;;1.20;;
9767;SDS011;4923;52.520;13.494;2023-07-13T06:14:36;2.20;;;1.33;;
9767;SDS011;4923;52.520;13.494;2023-07-13T06:17:23;1.03;;;1.03;;
9767;SDS011;4923;52.520;13.494;2023-07-13T06:20:10;1.40;;;1.27;;
9767;SDS011;4923;52.520;13.494;2023-07-13T06:22:58;5.80;;;1.20;;
9767;SDS011;4923;52.520;13.494;2023-07-13T06:25:45;2.70;;;1.07;;
9767;SDS011;4923;52.520;13.494;2023-07-13T06:28:32;2.73;;;1.23;;
9767;SDS011;4923;52.520;13.494;2023-07-13T06:31:20;1.53;;;1.30;;
9767;SDS011;4923;52.520;13.494;2023-07-13T06:34:07;4.00;;;1.30;;
9767;SDS011;4923;52.520;13.494;2023-07-13T06:36:54;4.60;;;1.30;;
9767;SDS011;4923;52.520;13.494;2023-07-13T06:39:42;1.10;;;1.10;;
9767;SDS011;4923;52.520;13.494;2023-07-13T06:42:29;2.03;;;1.53;;
9767;SDS011;4923;52.520;13.494;2023-07-13T06:45:16;3.10;;;1.90;;
9767;SDS011;4923;52.520;13.494;2023-07-13T06:48:03;12.50;;;2.77;;
9767;SDS011;4923;52.520;13.494;2023-07-13T06:50:50;7.40;;;1.33;;
9767;SDS011;4923;52.520;13.494;2023-07-13T06:53:38;8.93;;;1.80;;
9767;SDS011;4923;52.520;13.494;2023-07-13T06:56:26;3.13;;;1.30;;
9767;SDS011;4923;52.520;13.494;2023-07-13T06:59:13;3.40;;;1.07;;
9767;SDS011;4923;52.520;13.494;2023-07-13T07:02:00;1.23;;;1.03;;
9767;SDS011;4923;52.520;13.494;2023-07-13T07:04:46;4.37;;;1.20;;
9767;SDS011;4923;52.520;13.494;2023-07-13T07:07:33;8.30;;;1.50;;
9767;SDS011;4923;52.520;13.494;2023-07-13T07:10:20;3.00;;;1.07;;
9767;SDS011;4923;52.520;13.494;2023-07-13T07:13:09;3.10;;;0.93;;
9767;SDS011;4923;52.520;13.494;2023-07-13T07:15:55;2.83;;;0.60;;
9767;SDS011;4923;52.520;13.494;2023-07-13T07:18:42;1.23;;;0.70;;
9767;SDS011;4923;52.520;13.494;2023-07-13T07:21:29;6.27;;;0.87;;
9767;SDS011;4923;52.520;13.494;2023-07-13T07:24:16;2.40;;;0.80;;
9767;SDS011;4923;52.520;13.494;2023-07-13T07:27:03;0.93;;;0.73;;
9767;SDS011;4923;52.520;13.494;2023-07-13T07:29:52;2.60;;;0.80;;
9767;SDS011;4923;52.520;13.494;2023-07-13T07:32:39;2.87;;;0.90;;
9767;SDS011;4923;52.520;13.494;2023-07-13T07:35:26;2.07;;;1.10;;
9767;SDS011;4923;52.520;13.494;2023-07-13T07:38:13;2.80;;;1.00;;
9767;SDS011;4923;52.520;13.494;2023-07-13T07:41:02;0.80;;;0.80;;
9767;SDS011;4923;52.520;13.494;2023-07-13T07:43:49;1.03;;;0.97;;
9767;SDS011;4923;52.520;13.494;2023-07-13T07:46:38;0.70;;;0.70;;
9767;SDS011;4923;52.520;13.494;2023-07-13T07:49:26;1.80;;;0.90;;
9767;SDS011;4923;52.520;13.494;2023-07-13T07:52:13;5.33;;;1.50;;
9767;SDS011;4923;52.520;13.494;2023-07-13T07:55:00;0.87;;;0.77;;
9767;SDS011;4923;52.520;13.494;2023-07-13T07:57:47;2.50;;;1.47;;
9767;SDS011;4923;52.520;13.494;2023-07-13T08:00:34;1.43;;;0.97;;
9767;SDS011;4923;52.520;13.494;2023-07-13T08:03:22;1.90;;;1.00;;
9767;SDS011;4923;52.520;13.494;2023-07-13T08:06:09;2.10;;;1.00;;
9767;SDS011;4923;52.520;13.494;2023-07-13T08:08:58;0.80;;;0.80;;
9767;SDS011;4923;52.520;13.494;2023-07-13T08:11:46;2.63;;;0.67;;
9767;SDS011;4923;52.520;13.494;2023-07-13T08:14:33;2.60;;;0.80;;
9767;SDS011;4923;52.520;13.494;2023-07-13T08:17:20;1.37;;;0.90;;
9767;SDS011;4923;52.520;13.494;2023-07-13T08:20:09;2.73;;;0.70;;
9767;SDS011;4923;52.520;13.494;2023-07-13T08:22:56;4.60;;;0.73;;
9767;SDS011;4923;52.520;13.494;2023-07-13T08:25:49;0.73;;;0.73;;
9767;SDS011;4923;52.520;13.494;2023-07-13T08:28:37;1.90;;;0.83;;
9767;SDS011;4923;52.520;13.494;2023-07-13T08:31:24;3.60;;;0.80;;
9767;SDS011;4923;52.520;13.494;2023-07-13T08:34:11;5.03;;;0.90;;
9767;SDS011;4923;52.520;13.494;2023-07-13T08:37:01;1.23;;;0.80;;
9767;SDS011;4923;52.520;13.494;2023-07-13T08:39:48;3.83;;;0.77;;
9767;SDS011;4923;52.520;13.494;2023-07-13T08:42:36;2.57;;;0.60;;
9767;SDS011;4923;52.520;13.494;2023-07-13T08:45:28;0.93;;;0.50;;
9767;SDS011;4923;52.520;13.494;2023-07-13T08:48:23;1.90;;;0.80;;
9767;SDS011;4923;52.520;13.494;2023-07-13T08:51:18;2.63;;;0.90;;
9767;SDS011;4923;52.520;13.494;2023-07-13T08:54:19;2.20;;;0.80;;
9767;SDS011;4923;52.520;13.494;2023-07-13T08:57:10;2.43;;;0.90;;
9767;SDS011;4923;52.520;13.494;2023-07-13T08:59:59;1.70;;;0.77;;
9767;SDS011;4923;52.520;13.494;2023-07-13T09:02:48;1.50;;;0.90;;
9767;SDS011;4923;52.520;13.494;2023-07-13T09:05:42;3.07;;;1.00;;
9767;SDS011;4923;52.520;13.494;2023-07-13T09:11:42;2.83;;;0.90;;
9767;SDS011;4923;52.520;13.494;2023-07-13T09:14:39;2.10;;;0.77;;
9767;SDS011;4923;52.520;13.494;2023-07-13T09:17:30;2.47;;;0.80;;
9767;SDS011;4923;52.520;13.494;2023-07-13T09:20:21;4.43;;;0.90;;
9767;SDS011;4923;52.520;13.494;2023-07-13T09:23:12;3.07;;;0.80;;
9767;SDS011;4923;52.520;13.494;2023-07-13T09:26:04;3.17;;;0.80;;
9767;SDS011;4923;52.520;13.494;2023-07-13T09:29:03;2.33;;;0.70;;
9767;SDS011;4923;52.520;13.494;2023-07-13T09:32:00;5.17;;;0.90;;
9767;SDS011;4923;52.520;13.494;2023-07-13T09:34:50;2.03;;;0.93;;
9767;SDS011;4923;52.520;13.494;2023-07-13T09:37:38;2.20;;;0.80;;
9767;SDS011;4923;52.520;13.494;2023-07-13T09:40:30;7.70;;;2.40;;
9767;SDS011;4923;52.520;13.494;2023-07-13T09:43:24;7.30;;;1.67;;
9767;SDS011;4923;52.520;13.494;2023-07-13T09:46:21;5.33;;;1.17;;
9767;SDS011;4923;52.520;13.494;2023-07-13T09:49:09;7.10;;;2.20;;
9767;SDS011;4923;52.520;13.494;2023-07-13T09:51:58;8.93;;;1.33;;
9767;SDS011;4923;52.520;13.494;2023-07-13T09:54:48;6.17;;;1.00;;
9767;SDS011;4923;52.520;13.494;2023-07-13T09:57:36;1.50;;;1.10;;
9767;SDS011;4923;52.520;13.494;2023-07-13T10:00:33;5.20;;;1.50;;
9767;SDS011;4923;52.520;13.494;2023-07-13T10:03:23;5.60;;;1.50;;
9767;SDS011;4923;52.520;13.494;2023-07-13T10:06:12;2.60;;;1.10;;
9767;SDS011;4923;52.520;13.494;2023-07-13T10:09:00;1.50;;;1.40;;
9767;SDS011;4923;52.520;13.494;2023-07-13T10:11:47;1.73;;;1.10;;
9767;SDS011;4923;52.520;13.494;2023-07-13T10:14:36;1.00;;;1.00;;
9767;SDS011;4923;52.520;13.494;2023-07-13T10:17:25;3.57;;;1.27;;
9767;SDS011;4923;52.520;13.494;2023-07-13T10:20:17;2.77;;;1.80;;
9767;SDS011;4923;52.520;13.494;2023-07-13T10:23:09;1.60;;;1.50;;
9767;SDS011;4923;52.520;13.494;2023-07-13T10:26:01;2.13;;;1.90;;
9767;SDS011;4923;52.520;13.494;2023-07-13T10:28:49;3.07;;;1.53;;
9767;SDS011;4923;52.520;13.494;2023-07-13T10:31:40;3.80;;;1.10;;
9767;SDS011;4923;52.520;13.494;2023-07-13T10:34:28;2.10;;;1.30;;
9767;SDS011;4923;52.520;13.494;2023-07-13T10:37:18;1.43;;;1.30;;
9767;SDS011;4923;52.520;13.494;2023-07-13T10:40:12;3.50;;;1.40;;
9767;SDS011;4923;52.520;13.494;2023-07-13T10:43:04;2.97;;;1.00;;
9767;SDS011;4923;52.520;13.494;2023-07-13T10:45:58;1.80;;;1.20;;
9767;SDS011;4923;52.520;13.494;2023-07-13T10:48:51;2.17;;;1.10;;
9767;SDS011;4923;52.520;13.494;2023-07-13T10:51:40;1.80;;;1.10;;
9767;SDS011;4923;52.520;13.494;2023-07-13T10:54:30;1.70;;;0.90;;
9767;SDS011;4923;52.520;13.494;2023-07-13T10:57:18;9.10;;;1.33;;
9767;SDS011;4923;52.520;13.494;2023-07-13T11:00:14;2.27;;;1.00;;
9767;SDS011;4923;52.520;13.494;2023-07-13T11:03:03;4.70;;;1.43;;
9767;SDS011;4923;52.520;13.494;2023-07-13T11:05:51;4.27;;;1.47;;
9767;SDS011;4923;52.520;13.494;2023-07-13T11:08:52;1.43;;;1.00;;
9767;SDS011;4923;52.520;13.494;2023-07-13T11:11:41;0.83;;;0.83;;
9767;SDS011;4923;52.520;13.494;2023-07-13T11:14:30;2.50;;;1.30;;
9767;SDS011;4923;52.520;13.494;2023-07-13T11:17:29;2.97;;;1.63;;
9767;SDS011;4923;52.520;13.494;2023-07-13T11:20:23;1.63;;;1.20;;
9767;SDS011;4923;52.520;13.494;2023-07-13T11:23:28;4.77;;;1.27;;
9767;SDS011;4923;52.520;13.494;2023-07-13T11:29:33;1.83;;;1.00;;
9767;SDS011;4923;52.520;13.494;2023-07-13T11:32:24;7.87;;;1.40;;
9767;SDS011;4923;52.520;13.494;2023-07-13T11:35:17;4.63;;;1.20;;
9767;SDS011;4923;52.520;13.494;2023-07-13T11:38:10;1.70;;;1.23;;
9767;SDS011;4923;52.520;13.494;2023-07-13T11:41:02;4.83;;;1.07;;
9767;SDS011;4923;52.520;13.494;2023-07-13T11:43:53;2.20;;;1.57;;
9767;SDS011;4923;52.520;13.494;2023-07-13T11:46:44;5.20;;;1.80;;
9767;SDS011;4923;52.520;13.494;2023-07-13T11:49:38;3.67;;;1.00;;
9767;SDS011;4923;52.520;13.494;2023-07-13T11:52:29;3.50;;;0.80;;
9767;SDS011;4923;52.520;13.494;2023-07-13T11:55:20;4.57;;;1.07;;
9767;SDS011;4923;52.520;13.494;2023-07-13T11:58:09;2.83;;;1.20;;
9767;SDS011;4923;52.520;13.494;2023-07-13T12:00:59;2.47;;;1.53;;
9767;SDS011;4923;52.520;13.494;2023-07-13T12:03:50;3.07;;;1.03;;
9767;SDS011;4923;52.520;13.494;2023-07-13T12:06:38;2.73;;;1.00;;
9767;SDS011;4923;52.520;13.494;2023-07-13T12:09:28;2.07;;;1.03;;
9767;SDS011;4923;52.520;13.494;2023-07-13T12:12:17;1.53;;;1.10;;
9767;SDS011;4923;52.520;13.494;2023-07-13T12:15:05;9.13;;;1.30;;
9767;SDS011;4923;52.520;13.494;2023-07-13T12:17:54;1.13;;;1.03;;
9767;SDS011;4923;52.520;13.494;2023-07-13T12:20:42;3.00;;;0.90;;
9767;SDS011;4923;52.520;13.494;2023-07-13T12:23:31;3.03;;;1.20;;
9767;SDS011;4923;52.520;13.494;2023-07-13T12:26:19;2.43;;;0.97;;
9767;SDS011;4923;52.520;13.494;2023-07-13T12:29:07;4.10;;;1.20;;
9767;SDS011;4923;52.520;13.494;2023-07-13T12:31:54;2.10;;;1.00;;
9767;SDS011;4923;52.520;13.494;2023-07-13T12:34:51;4.13;;;1.20;;
9767;SDS011;4923;52.520;13.494;2023-07-13T12:37:41;6.37;;;1.40;;
9767;SDS011;4923;52.520;13.494;2023-07-13T12:40:31;5.60;;;1.40;;
9767;SDS011;4923;52.520;13.494;2023-07-13T12:43:22;4.63;;;1.10;;
9767;SDS011;4923;52.520;13.494;2023-07-13T12:46:15;3.77;;;0.83;;
9767;SDS011;4923;52.520;13.494;2023-07-13T12:49:05;1.30;;;1.20;;
9767;SDS011;4923;52.520;13.494;2023-07-13T12:51:57;3.43;;;1.20;;
9767;SDS011;4923;52.520;13.494;2023-07-13T12:54:52;1.70;;;1.07;;
9767;SDS011;4923;52.520;13.494;2023-07-13T12:57:43;1.13;;;0.80;;
9767;SDS011;4923;52.520;13.494;2023-07-13T13:00:37;1.80;;;0.90;;
9767;SDS011;4923;52.520;13.494;2023-07-13T13:03:26;2.33;;;0.70;;
9767;SDS011;4923;52.520;13.494;2023-07-13T13:06:22;4.40;;;0.90;;
9767;SDS011;4923;52.520;13.494;2023-07-13T13:09:13;1.23;;;0.80;;
9767;SDS011;4923;52.520;13.494;2023-07-13T13:12:01;1.90;;;0.80;;
9767;SDS011;4923;52.520;13.494;2023-07-13T13:14:48;2.60;;;0.90;;
9767;SDS011;4923;52.520;13.494;2023-07-13T13:17:35;4.63;;;0.83;;
9767;SDS011;4923;52.520;13.494;2023-07-13T13:20:22;4.10;;;0.90;;
9767;SDS011;4923;52.520;13.494;2023-07-13T13:23:11;3.50;;;1.30;;
9767;SDS011;4923;52.520;13.494;2023-07-13T13:26:01;2.00;;;1.07;;
9767;SDS011;4923;52.520;13.494;2023-07-13T13:28:48;3.13;;;1.00;;
9767;SDS011;4923;52.520;13.494;2023-07-13T13:31:36;4.70;;;0.73;;
9767;SDS011;4923;52.520;13.494;2023-07-13T13:34:23;0.80;;;0.80;;
9767;SDS011;4923;52.520;13.494;2023-07-13T13:37:16;4.23;;;1.47;;
9767;SDS011;4923;52.520;13.494;2023-07-13T13:40:05;2.10;;;0.90;;
9767;SDS011;4923;52.520;13.494;2023-07-13T13:43:02;3.70;;;1.00;;
9767;SDS011;4923;52.520;13.494;2023-07-13T13:45:50;3.13;;;0.90;;
9767;SDS011;4923;52.520;13.494;2023-07-13T13:48:38;1.17;;;1.10;;
9767;SDS011;4923;52.520;13.494;2023-07-13T13:51:26;1.30;;;1.20;;
9767;SDS011;4923;52.520;13.494;2023-07-13T13:54:13;1.67;;;0.70;;
9767;SDS011;4923;52.520;13.494;2023-07-13T13:57:01;1.60;;;0.90;;
9767;SDS011;4923;52.520;13.494;2023-07-13T13:59:51;2.87;;;0.83;;
9767;SDS011;4923;52.520;13.494;2023-07-13T14:02:38;2.63;;;0.80;;
9767;SDS011;4923;52.520;13.494;2023-07-13T14:05:25;0.60;;;0.60;;
9767;SDS011;4923;52.520;13.494;2023-07-13T14:08:12;2.20;;;0.93;;
9767;SDS011;4923;52.520;13.494;2023-07-13T14:11:01;3.80;;;1.20;;
9767;SDS011;4923;52.520;13.494;2023-07-13T14:13:48;3.03;;;0.90;;
9767;SDS011;4923;52.520;13.494;2023-07-13T14:16:38;1.07;;;0.80;;
9767;SDS011;4923;52.520;13.494;2023-07-13T14:19:28;1.70;;;0.80;;
9767;SDS011;4923;52.520;13.494;2023-07-13T14:22:15;1.10;;;0.60;;
9767;SDS011;4923;52.520;13.494;2023-07-13T14:25:02;7.93;;;1.67;;
9767;SDS011;4923;52.520;13.494;2023-07-13T14:27:49;5.30;;;0.70;;
9767;SDS011;4923;52.520;13.494;2023-07-13T14:30:41;1.93;;;0.70;;
9767;SDS011;4923;52.520;13.494;2023-07-13T14:33:29;1.90;;;0.73;;
9767;SDS011;4923;52.520;13.494;2023-07-13T14:36:21;3.03;;;0.90;;
9767;SDS011;4923;52.520;13.494;2023-07-13T14:39:13;5.73;;;0.90;;
9767;SDS011;4923;52.520;13.494;2023-07-13T14:42:01;1.03;;;0.70;;
9767;SDS011;4923;52.520;13.494;2023-07-13T14:44:48;0.57;;;0.57;;
9767;SDS011;4923;52.520;13.494;2023-07-13T14:47:35;5.80;;;0.80;;
9767;SDS011;4923;52.520;13.494;2023-07-13T14:50:24;1.63;;;0.70;;
9767;SDS011;4923;52.520;13.494;2023-07-13T14:53:16;4.47;;;1.33;;
9767;SDS011;4923;52.520;13.494;2023-07-13T14:56:08;0.60;;;0.60;;
9767;SDS011;4923;52.520;13.494;2023-07-13T14:58:59;3.83;;;0.97;;
9767;SDS011;4923;52.520;13.494;2023-07-13T15:01:46;3.60;;;0.80;;
9767;SDS011;4923;52.520;13.494;2023-07-13T15:04:35;6.50;;;0.67;;
9767;SDS011;4923;52.520;13.494;2023-07-13T15:07:23;3.80;;;0.70;;
9767;SDS011;4923;52.520;13.494;2023-07-13T15:10:14;2.93;;;0.90;;
9767;SDS011;4923;52.520;13.494;2023-07-13T15:13:12;2.83;;;0.80;;
9767;SDS011;4923;52.520;13.494;2023-07-13T15:16:01;3.80;;;0.80;;
9767;SDS011;4923;52.520;13.494;2023-07-13T15:18:50;1.27;;;0.70;;
9767;SDS011;4923;52.520;13.494;2023-07-13T15:21:37;2.07;;;0.70;;
9767;SDS011;4923;52.520;13.494;2023-07-13T15:24:25;1.57;;;0.97;;
9767;SDS011;4923;52.520;13.494;2023-07-13T15:27:14;7.10;;;0.90;;
9767;SDS011;4923;52.520;13.494;2023-07-13T15:30:01;0.50;;;0.50;;
9767;SDS011;4923;52.520;13.494;2023-07-13T15:32:48;0.70;;;0.70;;
9767;SDS011;4923;52.520;13.494;2023-07-13T15:35:35;2.30;;;0.70;;
9767;SDS011;4923;52.520;13.494;2023-07-13T15:38:23;3.10;;;0.53;;
9767;SDS011;4923;52.520;13.494;2023-07-13T15:41:16;1.97;;;0.40;;
9767;SDS011;4923;52.520;13.494;2023-07-13T15:44:08;0.60;;;0.60;;
9767;SDS011;4923;52.520;13.494;2023-07-13T15:47:13;1.70;;;0.60;;
9767;SDS011;4923;52.520;13.494;2023-07-13T15:50:01;6.03;;;1.10;;
9767;SDS011;4923;52.520;13.494;2023-07-13T15:52:49;2.53;;;0.70;;
9767;SDS011;4923;52.520;13.494;2023-07-13T15:55:38;1.60;;;0.60;;
9767;SDS011;4923;52.520;13.494;2023-07-13T15:58:27;1.70;;;1.23;;
9767;SDS011;4923;52.520;13.494;2023-07-13T16:01:14;1.00;;;0.90;;
9767;SDS011;4923;52.520;13.494;2023-07-13T16:04:01;2.97;;;1.00;;
9767;SDS011;4923;52.520;13.494;2023-07-13T16:06:48;1.70;;;0.63;;
9767;SDS011;4923;52.520;13.494;2023-07-13T16:09:35;2.77;;;0.80;;
9767;SDS011;4923;52.520;13.494;2023-07-13T16:12:22;0.60;;;0.60;;
9767;SDS011;4923;52.520;13.494;2023-07-13T16:15:13;1.80;;;0.70;;
9767;SDS011;4923;52.520;13.494;2023-07-13T16:18:01;1.00;;;0.80;;
9767;SDS011;4923;52.520;13.494;2023-07-13T16:20:48;8.13;;;0.80;;
9767;SDS011;4923;52.520;13.494;2023-07-13T16:23:36;0.90;;;0.63;;
9767;SDS011;4923;52.520;13.494;2023-07-13T16:26:25;7.23;;;0.80;;
9767;SDS011;4923;52.520;13.494;2023-07-13T16:29:19;0.60;;;0.60;;
9767;SDS011;4923;52.520;13.494;2023-07-13T16:32:10;1.23;;;0.70;;
9767;SDS011;4923;52.520;13.494;2023-07-13T16:34:59;2.40;;;0.70;;
9767;SDS011;4923;52.520;13.494;2023-07-13T16:37:45;0.93;;;0.70;;
9767;SDS011;4923;52.520;13.494;2023-07-13T16:40:33;1.17;;;0.70;;
9767;SDS011;4923;52.520;13.494;2023-07-13T16:43:21;1.80;;;1.13;;
9767;SDS011;4923;52.520;13.494;2023-07-13T16:46:07;2.10;;;0.70;;
9767;SDS011;4923;52.520;13.494;2023-07-13T16:49:01;1.17;;;0.70;;
9767;SDS011;4923;52.520;13.494;2023-07-13T16:51:47;2.37;;;0.70;;
9767;SDS011;4923;52.520;13.494;2023-07-13T16:54:35;1.80;;;0.60;;
9767;SDS011;4923;52.520;13.494;2023-07-13T16:57:25;1.27;;;0.83;;
9767;SDS011;4923;52.520;13.494;2023-07-13T17:00:20;2.37;;;0.80;;
9767;SDS011;4923;52.520;13.494;2023-07-13T17:03:12;1.07;;;0.70;;
9767;SDS011;4923;52.520;13.494;2023-07-13T17:06:01;2.37;;;1.17;;
9767;SDS011;4923;52.520;13.494;2023-07-13T17:08:59;4.23;;;0.80;;
9767;SDS011;4923;52.520;13.494;2023-07-13T17:11:51;1.07;;;0.97;;
9767;SDS011;4923;52.520;13.494;2023-07-13T17:14:39;6.43;;;1.30;;
9767;SDS011;4923;52.520;13.494;2023-07-13T17:17:26;11.37;;;1.60;;